Retrouvez également nos données météorologiques sur:

UK Metoffice

Weather Underground

AWEKAS

Citizen Weather Observer Program (CWOP)



Rapports METAR à proximité

   
LFOJ - Montargis
Mise à jour: 25-08-2019 02:00
Ciel dégagé  
Ciel dégagé  
   Vent: ESE 11.1 km/h
Vent: ESE 11.1 km/h
Température: 19°C
Point de rosée: 13°C
Humidité: 68%
Pression atmosphérique: 1016 hPa
Visibilité: More than 10 km
Nébulosité: Ciel dégagé
LFOJ 250000Z AUTO 11006KT CAVOK 19/13 Q1016
LFOJ - Orléans
Mise à jour: 25-08-2019 02:00
Ciel dégagé  
Ciel dégagé  
   Vent: ESE 11.1 km/h
Vent: ESE 11.1 km/h
Température: 19°C
Point de rosée: 13°C
Humidité: 68%
Pression atmosphérique: 1016 hPa
Visibilité: More than 10 km
Nébulosité: Ciel dégagé
LFOJ 250000Z AUTO 11006KT CAVOK 19/13 Q1016
LFQB - Sens
Mise à jour: 25-08-2019 02:00
Ciel dégagé  
Ciel dégagé  
   Vent: SSE 3.7 km/h
Vent: SSE 3.7 km/h
Température: 15°C
Point de rosée: 11°C
Humidité: 77%
Pression atmosphérique: 1017 hPa
Visibilité: More than 10 km
Nébulosité: Ciel dégagé
LFQB 250000Z AUTO 16002KT CAVOK 15/11 Q1017
LFQB - Auxerre
Mise à jour: 25-08-2019 02:00
Ciel dégagé  
Ciel dégagé  
   Vent: SSE 3.7 km/h
Vent: SSE 3.7 km/h
Température: 15°C
Point de rosée: 11°C
Humidité: 77%
Pression atmosphérique: 1017 hPa
Visibilité: More than 10 km
Nébulosité: Ciel dégagé
LFQB 250000Z AUTO 16002KT CAVOK 15/11 Q1017
LFPO - Paris
Mise à jour: 25-08-2019 02:00
Ciel dégagé  
Ciel dégagé  
   Vent: OSO 3.7 km/h
Vent: OSO 3.7 km/h
Température: 18°C
Point de rosée: 13°C
Humidité: 73%
Pression atmosphérique: 1017 hPa
Visibilité: More than 10 km
Nébulosité: Ciel dégagé
LFPO 250000Z 25002KT CAVOK 18/13 Q1017 NOSIG
LFLX - Bourges
Mise à jour: 25-08-2019 02:00
Ciel dégagé  
Ciel dégagé  
   Vent: ENE 5.6 km/h
Vent: ENE 5.6 km/h
Température: 15°C
Point de rosée: 7°C
Humidité: 59%
Pression atmosphérique: 1017 hPa
Visibilité: More than 10 km
Nébulosité: Ciel dégagé
LFLX 250000Z AUTO 06003KT CAVOK 15/07 Q1017 NOSIG

Original script by  Saratoga-weather.org Adapted for the template by  Weerstation Leuven